Time;durP1;ratioP1;P1;durP2;ratioP2;P2;SDS_P1;SDS_P2;PMS_P1;PMS_P2;Temp;Humidity;BMP_temperature;BMP_pressure;BME280_temperature;BME280_humidity;BME280_pressure;Samples;Min_cycle;Max_cycle;Signal;HPM_P1;HPM_P2
2021/07/28 00:00:30;;;;;;;21.97;18.27;;;16.50;99.90;;;;;;5052309;28;20522;-69
2021/07/28 00:02:57;;;;;;;21.83;18.90;;;16.50;99.90;;;;;;5058012;28;20982;-72
2021/07/28 00:05:24;;;;;;;20.83;18.80;;;16.50;99.90;;;;;;5058007;28;20462;-68
2021/07/28 00:07:51;;;;;;;21.40;19.40;;;16.60;99.90;;;;;;5057740;28;20456;-69
2021/07/28 00:10:20;;;;;;;20.30;18.50;;;16.60;99.90;;;;;;5057072;28;20463;-68
2021/07/28 00:12:47;;;;;;;19.20;17.70;;;16.80;99.90;;;;;;5056924;28;20452;-69
2021/07/28 00:15:14;;;;;;;18.50;16.80;;;16.80;99.90;;;;;;5054313;28;20447;-69
2021/07/28 00:17:45;;;;;;;20.20;18.27;;;16.80;99.90;;;;;;5057311;28;20471;-69
2021/07/28 00:20:18;;;;;;;20.23;18.37;;;16.80;99.90;;;;;;5050212;28;20562;-69
2021/07/28 00:25:34;;;;;;;21.77;19.53;;;16.80;99.90;;;;;;5056329;28;20814;-71
2021/07/28 00:28:01;;;;;;;20.57;18.80;;;16.80;99.90;;;;;;5052863;28;20463;-69
2021/07/28 00:30:28;;;;;;;20.37;18.30;;;16.70;99.90;;;;;;5054404;28;20471;-72
2021/07/28 00:32:55;;;;;;;21.00;19.00;;;16.70;99.90;;;;;;5050581;28;20487;-70
2021/07/28 00:35:22;;;;;;;20.97;18.40;;;16.60;99.90;;;;;;5055605;28;20452;-70
2021/07/28 00:37:49;;;;;;;22.33;18.80;;;16.50;99.90;;;;;;5056261;28;20945;-70
2021/07/28 00:40:17;;;;;;;24.63;19.67;;;16.40;99.90;;;;;;5054089;28;20582;-72
2021/07/28 00:42:46;;;;;;;21.90;19.00;;;16.30;99.90;;;;;;5054883;28;20993;-69
2021/07/28 00:45:14;;;;;;;22.43;18.37;;;16.30;99.90;;;;;;5055011;28;20541;-71
2021/07/28 00:47:41;;;;;;;22.30;19.00;;;16.20;99.90;;;;;;5049963;28;20456;-71
2021/07/28 00:50:09;;;;;;;23.00;18.40;;;16.20;99.90;;;;;;5056495;28;20455;-72
2021/07/28 00:52:38;;;;;;;21.27;18.70;;;16.30;99.90;;;;;;5061097;28;20463;-69
2021/07/28 00:55:07;;;;;;;21.47;19.17;;;16.20;99.90;;;;;;5054850;28;20460;-68
2021/07/28 00:57:34;;;;;;;28.77;19.40;;;16.30;99.90;;;;;;5055352;28;20460;-69
2021/07/28 01:00:03;;;;;;;24.87;18.57;;;16.30;99.90;;;;;;5050285;28;20439;-70
2021/07/28 01:02:30;;;;;;;21.13;18.90;;;16.40;99.90;;;;;;5054324;28;21385;-72
2021/07/28 01:04:57;;;;;;;21.40;19.33;;;16.50;99.90;;;;;;5053175;28;20455;-69
2021/07/28 01:07:24;;;;;;;27.50;18.90;;;16.50;99.90;;;;;;5064081;28;20587;-69
2021/07/28 01:09:51;;;;;;;23.50;18.00;;;16.50;99.90;;;;;;5062985;28;20474;-69
2021/07/28 01:12:18;;;;;;;24.00;19.10;;;16.50;99.90;;;;;;5053008;28;20490;-72
2021/07/28 01:14:45;;;;;;;21.07;19.13;;;16.50;99.90;;;;;;5056441;28;20514;-69
2021/07/28 01:17:13;;;;;;;20.80;18.80;;;16.50;99.90;;;;;;5063362;28;20471;-69
2021/07/28 01:19:48;;;;;;;20.67;18.77;;;16.50;99.90;;;;;;5049415;28;20470;-69
2021/07/28 01:22:17;;;;;;;21.17;18.77;;;16.50;99.90;;;;;;5057222;28;21045;-71
2021/07/28 01:24:45;;;;;;;24.47;19.53;;;16.40;99.90;;;;;;5055896;28;20546;-69
2021/07/28 01:27:14;;;;;;;21.93;19.77;;;16.40;99.90;;;;;;5054854;28;20934;-71
2021/07/28 01:29:43;;;;;;;21.93;19.33;;;16.40;99.90;;;;;;5055481;28;20459;-72
2021/07/28 01:32:10;;;;;;;20.43;18.80;;;16.40;99.90;;;;;;5053768;28;20463;-72
2021/07/28 01:34:38;;;;;;;21.47;18.87;;;16.30;99.90;;;;;;5059095;28;20482;-71
2021/07/28 01:37:07;;;;;;;22.20;20.40;;;16.30;99.90;;;;;;5055345;28;20464;-69
2021/07/28 01:39:34;;;;;;;22.60;20.27;;;16.20;99.90;;;;;;5054102;28;20954;-71
2021/07/28 01:42:03;;;;;;;23.40;20.90;;;16.20;99.90;;;;;;5051915;28;20495;-69
2021/07/28 01:44:32;;;;;;;22.87;20.57;;;16.10;99.90;;;;;;5054774;28;20825;-69
2021/07/28 01:46:59;;;;;;;21.57;19.53;;;16.10;99.90;;;;;;5059956;28;20786;-69
2021/07/28 01:49:26;;;;;;;23.27;20.87;;;16.00;99.90;;;;;;5056803;28;20462;-69
2021/07/28 01:51:53;;;;;;;22.43;20.40;;;16.00;99.90;;;;;;5052526;28;20459;-69
2021/07/28 01:54:21;;;;;;;23.07;20.33;;;15.90;99.90;;;;;;5056203;28;20463;-71
2021/07/28 01:56:48;;;;;;;23.30;20.90;;;15.90;99.90;;;;;;5056375;28;20479;-69
2021/07/28 01:59:16;;;;;;;22.00;20.00;;;15.90;99.90;;;;;;5055832;28;20482;-71
2021/07/28 02:01:44;;;;;;;23.00;20.53;;;15.80;99.90;;;;;;5051027;28;20488;-70
2021/07/28 02:04:12;;;;;;;23.03;20.57;;;15.80;99.90;;;;;;5054649;28;20458;-70
2021/07/28 02:06:40;;;;;;;22.47;20.03;;;15.80;99.90;;;;;;5058488;28;20472;-69
2021/07/28 02:09:07;;;;;;;28.17;20.70;;;15.80;99.90;;;;;;5058635;28;20458;-69
2021/07/28 02:11:35;;;;;;;23.27;20.80;;;15.90;99.90;;;;;;5058364;28;20466;-69
2021/07/28 02:14:01;;;;;;;23.67;20.23;;;15.90;99.90;;;;;;5054336;28;20470;-69
2021/07/28 02:16:30;;;;;;;21.90;19.63;;;16.00;99.90;;;;;;5057337;28;20481;-70
2021/07/28 02:18:57;;;;;;;22.10;19.97;;;16.00;99.90;;;;;;5059516;28;20656;-70
2021/07/28 02:21:25;;;;;;;26.03;20.67;;;16.00;99.90;;;;;;5052048;28;20505;-69
2021/07/28 02:23:51;;;;;;;21.30;19.43;;;16.00;99.90;;;;;;5051722;28;20511;-70
2021/07/28 02:26:19;;;;;;;23.67;21.00;;;16.00;99.90;;;;;;5052605;28;20466;-71
2021/07/28 02:28:46;;;;;;;21.60;19.70;;;15.90;99.90;;;;;;5051329;28;20451;-69
2021/07/28 02:31:13;;;;;;;21.63;19.70;;;15.90;99.90;;;;;;5053850;28;20937;-69
2021/07/28 02:33:42;;;;;;;22.57;20.33;;;16.00;99.90;;;;;;5057498;28;20463;-69
2021/07/28 02:36:08;;;;;;;21.93;19.70;;;16.00;99.90;;;;;;5054335;28;20966;-69
2021/07/28 02:38:36;;;;;;;20.67;19.07;;;16.10;99.90;;;;;;5051527;28;20452;-69
2021/07/28 02:41:03;;;;;;;20.97;18.97;;;16.10;99.90;;;;;;5052495;28;20483;-69
2021/07/28 02:43:30;;;;;;;24.43;18.93;;;16.20;99.90;;;;;;5050966;28;21016;-69
2021/07/28 02:45:57;;;;;;;19.87;18.30;;;16.20;99.90;;;;;;5057668;28;20464;-68
2021/07/28 02:48:23;;;;;;;22.73;20.63;;;16.30;99.90;;;;;;5050957;28;20811;-71
2021/07/28 02:50:51;;;;;;;20.90;18.70;;;16.30;99.90;;;;;;5056955;28;20806;-73
2021/07/28 02:53:20;;;;;;;20.87;18.77;;;16.30;99.90;;;;;;5055093;28;20807;-70
2021/07/28 02:55:47;;;;;;;25.07;19.50;;;16.40;99.90;;;;;;5059786;28;20462;-71
2021/07/28 02:58:14;;;;;;;22.53;18.73;;;16.40;99.90;;;;;;5054032;28;20458;-69
2021/07/28 03:00:41;;;;;;;20.80;18.80;;;16.50;99.90;;;;;;5056387;28;20476;-69
2021/07/28 03:03:09;;;;;;;20.90;18.97;;;16.50;99.90;;;;;;5051350;28;20866;-69
2021/07/28 03:05:36;;;;;;;21.37;19.17;;;16.50;99.90;;;;;;5060333;28;20458;-69
2021/07/28 03:08:05;;;;;;;22.00;20.00;;;16.50;99.90;;;;;;5062264;28;20463;-68
2021/07/28 03:10:31;;;;;;;20.97;19.03;;;16.50;99.90;;;;;;5052243;28;20454;-69
2021/07/28 03:12:58;;;;;;;22.00;20.00;;;16.60;99.90;;;;;;5059192;28;20471;-71
2021/07/28 03:15:25;;;;;;;21.27;19.33;;;16.50;99.90;;;;;;5058133;28;20467;-69
2021/07/28 03:17:52;;;;;;;21.87;19.73;;;16.60;99.90;;;;;;5056810;28;20811;-69
2021/07/28 03:20:20;;;;;;;22.40;19.43;;;16.70;99.90;;;;;;5056593;28;20550;-69
2021/07/28 03:22:47;;;;;;;25.10;18.60;;;16.70;99.90;;;;;;5057606;28;20487;-68
2021/07/28 03:25:15;;;;;;;23.07;20.63;;;16.70;99.90;;;;;;5051924;28;20460;-70
2021/07/28 03:27:42;;;;;;;21.90;19.40;;;16.70;99.90;;;;;;5055813;28;20818;-69
2021/07/28 03:30:10;;;;;;;27.43;20.03;;;16.70;99.90;;;;;;5055582;28;20946;-69
2021/07/28 03:32:37;;;;;;;22.87;19.50;;;16.70;99.90;;;;;;5053460;28;20953;-69
2021/07/28 03:35:04;;;;;;;23.73;20.10;;;16.70;99.90;;;;;;5057185;28;20462;-71
2021/07/28 03:37:30;;;;;;;24.00;21.63;;;16.70;99.90;;;;;;5055167;28;20865;-69
2021/07/28 03:40:03;;;;;;;23.70;21.30;;;16.70;99.90;;;;;;5056231;28;20467;-71
2021/07/28 03:42:34;;;;;;;23.23;21.00;;;16.60;99.90;;;;;;5059139;28;20850;-69
2021/07/28 03:45:01;;;;;;;24.50;20.70;;;16.60;99.90;;;;;;5062023;28;20455;-69
2021/07/28 03:47:28;;;;;;;22.93;20.90;;;16.50;99.90;;;;;;5062638;28;20945;-71
2021/07/28 03:49:56;;;;;;;23.47;21.10;;;16.40;99.90;;;;;;5056959;28;20448;-71
2021/07/28 03:52:22;;;;;;;22.20;20.20;;;16.40;99.90;;;;;;5050496;28;20522;-69
2021/07/28 03:54:49;;;;;;;22.37;20.37;;;16.40;99.90;;;;;;5059165;28;21050;-69
2021/07/28 03:57:17;;;;;;;24.63;20.00;;;16.50;99.90;;;;;;5062443;28;20462;-70
2021/07/28 03:59:45;;;;;;;20.43;18.83;;;16.50;99.90;;;;;;5055636;28;20546;-70
2021/07/28 04:02:13;;;;;;;21.47;19.47;;;16.60;99.90;;;;;;5052761;28;20475;-71
2021/07/28 04:04:40;;;;;;;21.40;19.70;;;16.60;99.90;;;;;;5053662;28;20490;-69
2021/07/28 04:07:07;;;;;;;23.60;20.30;;;16.60;99.90;;;;;;5060906;28;20463;-69
2021/07/28 04:09:34;;;;;;;21.70;19.77;;;16.80;99.90;;;;;;5057448;28;20970;-70
2021/07/28 04:12:01;;;;;;;21.30;19.40;;;16.80;99.90;;;;;;5056233;28;20451;-69
2021/07/28 04:14:28;;;;;;;22.53;20.20;;;16.80;99.90;;;;;;5054541;28;20480;-69
2021/07/28 04:16:56;;;;;;;23.73;21.33;;;16.90;99.90;;;;;;5065856;28;20840;-69
2021/07/28 04:19:23;;;;;;;23.13;20.83;;;16.80;99.90;;;;;;5054378;28;20472;-71
2021/07/28 04:21:51;;;;;;;27.80;21.23;;;16.90;99.90;;;;;;5052532;28;20490;-72
2021/07/28 04:24:18;;;;;;;29.57;22.07;;;16.90;99.90;;;;;;5059948;28;20464;-70
2021/07/28 04:26:45;;;;;;;27.70;20.23;;;16.80;99.90;;;;;;5056082;28;20839;-69
2021/07/28 04:29:12;;;;;;;22.57;20.47;;;16.90;99.90;;;;;;5054626;28;20485;-69
2021/07/28 04:31:38;;;;;;;26.63;20.33;;;16.90;99.90;;;;;;5054867;28;20505;-70
2021/07/28 04:34:07;;;;;;;22.53;19.90;;;16.90;99.90;;;;;;5048981;28;20454;-69
2021/07/28 04:36:33;;;;;;;22.60;20.60;;;16.90;99.90;;;;;;5057656;28;20530;-72
2021/07/28 04:39:01;;;;;;;24.90;20.40;;;16.90;99.90;;;;;;5053224;28;20467;-69
2021/07/28 04:41:29;;;;;;;33.83;20.30;;;16.90;99.90;;;;;;5059433;28;20489;-69
2021/07/28 04:43:55;;;;;;;26.97;21.00;;;16.90;99.90;;;;;;5054920;28;20479;-70
2021/07/28 04:46:22;;;;;;;23.97;21.63;;;16.90;99.90;;;;;;5058769;28;20458;-69
2021/07/28 04:48:49;;;;;;;25.67;21.43;;;17.00;99.90;;;;;;5056979;28;21077;-69
2021/07/28 04:51:20;;;;;;;23.87;21.67;;;17.10;99.90;;;;;;5056622;28;20453;-69
2021/07/28 04:53:48;;;;;;;22.37;20.17;;;17.20;99.90;;;;;;5054683;28;20484;-69
2021/07/28 04:56:15;;;;;;;22.87;20.50;;;17.20;99.90;;;;;;5061012;28;20726;-70
2021/07/28 04:58:41;;;;;;;24.33;20.67;;;17.20;99.90;;;;;;5052265;28;20463;-70
2021/07/28 05:01:09;;;;;;;23.47;21.13;;;17.30;99.90;;;;;;5055634;28;20943;-69
2021/07/28 05:03:36;;;;;;;27.93;21.23;;;17.30;99.90;;;;;;5057591;28;20450;-69
2021/07/28 05:06:03;;;;;;;24.50;22.23;;;17.30;99.90;;;;;;5053450;28;20569;-71
2021/07/28 05:08:31;;;;;;;23.03;20.80;;;17.40;99.90;;;;;;5054987;28;20821;-69
2021/07/28 05:10:57;;;;;;;22.17;20.17;;;17.50;99.90;;;;;;5048851;28;20470;-70
2021/07/28 05:13:24;;;;;;;22.37;20.37;;;17.60;99.90;;;;;;5054652;28;20463;-70
2021/07/28 05:15:53;;;;;;;22.80;20.97;;;17.60;99.90;;;;;;5055893;28;20475;-69
2021/07/28 05:18:21;;;;;;;22.07;20.20;;;17.70;99.90;;;;;;5055114;28;20467;-69
2021/07/28 05:20:48;;;;;;;22.70;20.60;;;17.80;99.90;;;;;;5054041;28;20467;-69
2021/07/28 05:23:16;;;;;;;23.33;21.27;;;17.90;99.90;;;;;;5055978;28;20513;-70
2021/07/28 05:25:44;;;;;;;23.37;21.20;;;17.90;99.90;;;;;;5049023;28;20550;-68
2021/07/28 05:28:11;;;;;;;34.53;20.57;;;17.90;99.90;;;;;;5059793;28;20473;-70
2021/07/28 05:30:41;;;;;;;23.07;20.67;;;17.90;99.90;;;;;;5049372;28;20460;-69
2021/07/28 05:33:07;;;;;;;22.60;20.60;;;18.00;99.90;;;;;;5053280;28;20459;-69
2021/07/28 05:35:34;;;;;;;22.43;20.23;;;18.00;99.90;;;;;;5054081;28;20848;-72
2021/07/28 05:38:03;;;;;;;22.77;20.73;;;18.10;99.90;;;;;;5055320;28;20458;-69
2021/07/28 05:40:30;;;;;;;23.07;20.80;;;18.10;99.90;;;;;;5059175;28;20481;-69
2021/07/28 05:42:59;;;;;;;23.43;21.10;;;18.10;99.90;;;;;;5055664;28;20493;-69
2021/07/28 05:45:26;;;;;;;22.00;20.03;;;18.20;99.90;;;;;;5060049;28;20469;-72
2021/07/28 05:47:53;;;;;;;23.73;21.53;;;18.30;99.90;;;;;;5052695;28;20463;-69
2021/07/28 05:50:20;;;;;;;24.37;21.90;;;18.40;99.90;;;;;;5053609;28;20468;-70
2021/07/28 05:52:47;;;;;;;23.10;20.90;;;18.40;99.90;;;;;;5056802;28;20458;-69
2021/07/28 05:55:15;;;;;;;23.67;21.63;;;18.40;99.90;;;;;;5053947;28;20451;-70
2021/07/28 05:57:42;;;;;;;24.17;21.97;;;18.50;99.90;;;;;;5055050;28;20462;-69
2021/07/28 06:00:12;;;;;;;23.97;21.63;;;18.50;99.90;;;;;;5052951;28;20474;-69
2021/07/28 06:02:39;;;;;;;24.27;21.90;;;18.50;99.90;;;;;;5053228;28;20524;-69
2021/07/28 06:05:07;;;;;;;23.53;21.13;;;18.60;99.90;;;;;;5050202;28;20513;-72
2021/07/28 06:07:34;;;;;;;25.97;23.30;;;18.60;99.90;;;;;;5055528;28;20462;-69
2021/07/28 06:10:01;;;;;;;26.90;24.13;;;18.70;99.90;;;;;;5054865;28;20485;-68
2021/07/28 06:12:28;;;;;;;39.37;24.20;;;18.70;99.90;;;;;;5046749;28;20478;-68
2021/07/28 06:14:55;;;;;;;26.67;23.20;;;18.60;99.90;;;;;;5049359;28;20458;-70
2021/07/28 06:17:24;;;;;;;28.40;23.97;;;18.60;99.90;;;;;;5049835;28;20497;-69
2021/07/28 06:19:51;;;;;;;27.37;25.13;;;18.50;99.90;;;;;;5047534;28;21028;-69
2021/07/28 06:22:18;;;;;;;26.20;23.90;;;18.50;99.90;;;;;;5053352;28;20981;-71
2021/07/28 06:24:45;;;;;;;25.83;23.10;;;18.50;99.90;;;;;;5052700;28;20456;-69
2021/07/28 06:27:12;;;;;;;24.63;22.53;;;18.40;99.90;;;;;;5051405;28;20902;-70
2021/07/28 06:29:40;;;;;;;24.30;21.63;;;18.40;99.90;;;;;;5051299;28;20454;-68
2021/07/28 06:32:07;;;;;;;23.33;21.33;;;18.50;99.90;;;;;;5051988;28;20828;-68
2021/07/28 06:34:35;;;;;;;23.70;21.27;;;18.60;99.90;;;;;;5051146;28;20457;-68
2021/07/28 06:37:02;;;;;;;21.80;19.70;;;18.90;99.90;;;;;;5052180;28;20813;-70
2021/07/28 06:39:29;;;;;;;21.37;19.43;;;19.10;99.90;;;;;;5054180;28;20568;-69
2021/07/28 06:41:56;;;;;;;21.30;19.77;;;19.20;99.90;;;;;;5058881;28;20478;-68
2021/07/28 06:44:22;;;;;;;22.50;20.47;;;19.40;99.90;;;;;;5054071;28;20942;-68
2021/07/28 06:46:49;;;;;;;22.97;21.07;;;19.60;99.90;;;;;;5050490;28;20459;-71
2021/07/28 06:49:16;;;;;;;22.30;20.63;;;19.70;99.90;;;;;;5053008;28;20464;-69
2021/07/28 06:51:44;;;;;;;23.60;20.50;;;19.80;99.90;;;;;;5058658;28;20455;-69
2021/07/28 06:54:11;;;;;;;22.07;20.40;;;20.00;99.90;;;;;;5050795;28;20962;-69
2021/07/28 06:56:38;;;;;;;30.43;27.70;;;20.10;99.90;;;;;;5049711;28;20928;-68
2021/07/28 06:59:05;;;;;;;23.20;21.33;;;20.00;99.90;;;;;;5056793;28;20986;-69
2021/07/28 07:01:32;;;;;;;30.47;27.77;;;19.80;99.90;;;;;;5053193;28;20794;-68
2021/07/28 07:03:59;;;;;;;26.87;24.70;;;19.20;99.90;;;;;;5056628;28;20493;-68
2021/07/28 07:06:26;;;;;;;24.00;22.10;;;18.70;99.90;;;;;;5052188;28;20824;-67
2021/07/28 07:08:54;;;;;;;19.83;18.57;;;18.20;99.90;;;;;;5052922;28;20533;-68
2021/07/28 07:11:21;;;;;;;24.43;22.03;;;17.90;99.90;;;;;;5049872;28;20490;-67
2021/07/28 07:13:48;;;;;;;24.63;22.53;;;17.50;99.90;;;;;;5053401;28;20829;-70
2021/07/28 07:16:14;;;;;;;26.13;23.60;;;17.40;99.90;;;;;;5058491;28;20985;-68
2021/07/28 07:18:42;;;;;;;22.70;20.93;;;17.20;99.90;;;;;;5056157;28;21009;-68
2021/07/28 07:21:09;;;;;;;23.80;22.00;;;17.20;99.90;;;;;;5061254;28;20462;-69
2021/07/28 07:23:36;;;;;;;23.20;21.30;;;17.20;99.90;;;;;;5051138;28;20566;-68
2021/07/28 07:26:05;;;;;;;22.50;20.60;;;17.40;99.90;;;;;;5051862;28;20905;-68
2021/07/28 07:28:33;;;;;;;22.27;20.77;;;17.30;99.90;;;;;;5055133;28;20465;-69
2021/07/28 07:31:00;;;;;;;23.60;21.50;;;17.30;99.90;;;;;;5054239;28;20942;-71
2021/07/28 07:33:40;;;;;;;23.77;21.27;;;17.30;99.90;;;;;;5057295;28;21053;-68
2021/07/28 07:36:10;;;;;;;23.30;21.30;;;17.20;99.90;;;;;;5047328;28;20463;-68
2021/07/28 07:38:37;;;;;;;23.17;21.13;;;17.30;99.90;;;;;;5051106;28;20875;-71
2021/07/28 07:41:06;;;;;;;22.03;20.40;;;17.50;99.90;;;;;;5053207;28;21021;-69
2021/07/28 07:43:32;;;;;;;21.83;20.30;;;17.60;99.90;;;;;;5058015;28;20495;-68
2021/07/28 07:46:00;;;;;;;22.50;20.90;;;17.60;99.90;;;;;;5048806;28;20460;-69
2021/07/28 07:48:28;;;;;;;22.93;21.27;;;17.40;99.90;;;;;;5050817;28;20469;-68
2021/07/28 07:50:55;;;;;;;22.63;20.83;;;17.50;99.90;;;;;;5056444;28;20471;-69
2021/07/28 07:53:22;;;;;;;21.27;19.33;;;17.60;99.90;;;;;;5055137;28;20463;-72
2021/07/28 07:55:49;;;;;;;21.27;19.77;;;17.60;99.90;;;;;;5052720;28;20546;-69
2021/07/28 07:58:18;;;;;;;21.67;20.20;;;17.70;99.90;;;;;;5050107;28;20474;-68
2021/07/28 08:00:44;;;;;;;21.53;20.00;;;17.70;99.90;;;;;;5058237;28;21017;-67
2021/07/28 08:03:11;;;;;;;22.53;20.87;;;17.90;99.90;;;;;;5049659;28;20490;-68
2021/07/28 08:05:38;;;;;;;23.17;21.23;;;17.90;99.90;;;;;;5047486;28;20463;-67
2021/07/28 08:08:06;;;;;;;22.93;21.33;;;17.90;99.90;;;;;;5054075;28;20467;-69
2021/07/28 08:10:32;;;;;;;20.90;19.40;;;17.90;99.90;;;;;;5054388;28;20452;-68
2021/07/28 08:13:00;;;;;;;23.70;21.33;;;18.00;99.90;;;;;;5052159;28;20521;-66
2021/07/28 08:15:28;;;;;;;22.70;20.70;;;18.10;99.90;;;;;;5047646;28;20456;-66
2021/07/28 08:17:55;;;;;;;21.60;20.00;;;18.10;99.90;;;;;;5056065;28;20460;-67
2021/07/28 08:20:22;;;;;;;22.03;20.00;;;18.20;99.90;;;;;;5049556;28;20466;-67
2021/07/28 08:22:50;;;;;;;22.33;20.30;;;18.30;99.90;;;;;;5049587;28;20498;-67
2021/07/28 08:25:17;;;;;;;22.33;20.20;;;18.40;99.90;;;;;;5051290;28;20463;-67
2021/07/28 08:27:44;;;;;;;20.53;18.57;;;18.60;99.90;;;;;;5059230;28;20473;-67
2021/07/28 08:30:13;;;;;;;21.33;19.57;;;18.60;99.90;;;;;;5054383;28;20535;-68
2021/07/28 08:32:42;;;;;;;22.57;20.67;;;18.80;99.90;;;;;;5056668;28;20557;-70
2021/07/28 08:35:09;;;;;;;22.43;20.63;;;19.10;99.90;;;;;;5047913;28;20456;-67
2021/07/28 08:37:39;;;;;;;21.30;19.40;;;19.40;99.90;;;;;;5052283;28;20469;-67
2021/07/28 08:40:09;;;;;;;22.37;20.27;;;19.60;99.90;;;;;;5048281;28;20463;-67
2021/07/28 08:42:37;;;;;;;19.63;18.03;;;20.00;99.90;;;;;;5055285;28;20491;-68
2021/07/28 08:45:05;;;;;;;21.60;20.10;;;20.70;99.90;;;;;;5053594;28;20451;-69
2021/07/28 08:47:32;;;;;;;20.87;19.10;;;20.60;99.90;;;;;;5058439;28;20948;-71
2021/07/28 08:50:00;;;;;;;19.57;18.00;;;21.00;99.90;;;;;;5050991;28;20807;-68
2021/07/28 08:52:28;;;;;;;19.40;18.00;;;21.80;99.90;;;;;;5050101;28;20459;-68
2021/07/28 08:54:55;;;;;;;19.43;18.03;;;22.10;99.90;;;;;;5053591;28;20468;-68
2021/07/28 08:57:23;;;;;;;19.50;18.00;;;22.20;99.90;;;;;;5056848;28;20455;-67
2021/07/28 08:59:54;;;;;;;21.30;19.47;;;22.20;99.90;;;;;;5046521;28;20985;-67
2021/07/28 09:02:21;;;;;;;19.93;18.10;;;22.00;99.90;;;;;;5053912;28;20459;-68
2021/07/28 09:04:48;;;;;;;17.77;16.47;;;22.10;99.90;;;;;;5047540;28;20474;-67
2021/07/28 09:07:20;;;;;;;18.10;17.00;;;22.40;99.90;;;;;;5048428;28;20488;-68
2021/07/28 09:09:52;;;;;;;19.90;18.47;;;22.40;99.90;;;;;;5042076;28;20462;-68
2021/07/28 09:12:19;;;;;;;19.20;17.63;;;22.10;99.90;;;;;;5051344;28;20447;-67
2021/07/28 09:14:55;;;;;;;18.97;17.77;;;22.20;99.90;;;;;;5050404;28;20986;-68
2021/07/28 09:17:26;;;;;;;17.50;16.40;;;22.10;99.90;;;;;;5050528;28;21040;-71
2021/07/28 09:19:54;;;;;;;17.37;16.13;;;22.30;99.90;;;;;;5051611;28;20459;-68
2021/07/28 09:22:24;;;;;;;19.03;17.73;;;22.90;99.90;;;;;;5055409;28;20980;-68
2021/07/28 09:25:07;;;;;;;18.93;17.80;;;22.50;99.90;;;;;;5048139;28;20463;-67
2021/07/28 09:27:42;;;;;;;19.13;17.57;;;22.80;99.90;;;;;;5050695;28;20507;-69
2021/07/28 09:30:11;;;;;;;18.40;17.30;;;23.50;99.90;;;;;;5045043;28;20470;-68
2021/07/28 09:32:56;;;;;;;17.77;16.67;;;23.10;99.90;;;;;;5048571;28;20486;-68
2021/07/28 09:36:07;;;;;;;18.13;17.10;;;22.80;99.90;;;;;;5049016;28;20464;-68
2021/07/28 09:38:37;;;;;;;17.93;16.70;;;22.80;99.90;;;;;;5058151;28;20461;-68
2021/07/28 09:41:17;;;;;;;17.73;16.60;;;22.50;99.90;;;;;;5054212;28;20459;-68
2021/07/28 09:43:47;;;;;;;19.23;17.93;;;22.90;99.90;;;;;;5051466;28;20486;-70
2021/07/28 09:46:25;;;;;;;17.77;16.67;;;22.50;99.90;;;;;;5047738;28;20463;-68
2021/07/28 09:48:52;;;;;;;18.30;17.17;;;22.50;99.90;;;;;;5049464;28;20460;-71
2021/07/28 09:51:34;;;;;;;17.73;16.63;;;23.00;99.90;;;;;;5049356;28;20475;-68
2021/07/28 09:54:04;;;;;;;17.80;16.70;;;22.90;99.90;;;;;;5052557;28;20456;-68
2021/07/28 09:56:48;;;;;;;18.80;17.70;;;23.20;99.90;;;;;;5043964;28;20470;-68
2021/07/28 09:59:15;;;;;;;17.90;16.60;;;23.60;99.90;;;;;;5045881;28;20459;-69
2021/07/28 10:01:45;;;;;;;18.37;17.20;;;23.80;99.90;;;;;;5045742;28;20463;-69
2021/07/28 10:04:13;;;;;;;17.80;16.37;;;23.90;99.90;;;;;;5051540;28;20474;-69
2021/07/28 10:06:43;;;;;;;17.53;16.57;;;23.80;99.90;;;;;;5051474;28;20467;-72
2021/07/28 10:09:12;;;;;;;18.73;17.10;;;23.70;99.90;;;;;;5049284;28;20695;-71
2021/07/28 10:11:40;;;;;;;18.97;17.40;;;23.20;99.90;;;;;;5054020;28;20575;-72
2021/07/28 10:14:10;;;;;;;17.13;16.13;;;23.80;99.90;;;;;;5047617;28;20464;-68
2021/07/28 10:16:36;;;;;;;17.00;15.80;;;23.80;99.90;;;;;;5046742;28;21007;-68
2021/07/28 10:19:06;;;;;;;17.10;16.00;;;24.00;99.90;;;;;;5051916;28;20542;-68
2021/07/28 10:21:34;;;;;;;17.20;15.80;;;24.30;99.90;;;;;;5048335;28;20458;-68
2021/07/28 10:24:02;;;;;;;16.70;15.80;;;23.80;99.90;;;;;;5053694;28;20482;-69
2021/07/28 10:26:33;;;;;;;17.20;16.20;;;24.00;99.90;;;;;;5053317;28;20459;-68
2021/07/28 10:29:00;;;;;;;17.20;16.23;;;24.00;99.90;;;;;;5052164;28;20470;-68
2021/07/28 10:31:28;;;;;;;17.20;15.93;;;24.20;99.90;;;;;;5052681;28;20464;-68
2021/07/28 10:33:57;;;;;;;16.20;15.00;;;24.70;99.90;;;;;;5044705;28;20517;-69
2021/07/28 10:36:48;;;;;;;16.00;14.90;;;25.20;99.90;;;;;;5049657;28;20552;-68
2021/07/28 10:39:34;;;;;;;16.53;15.43;;;25.10;99.90;;;;;;5049544;28;20464;-71
2021/07/28 10:42:02;;;;;;;15.70;14.80;;;24.60;99.90;;;;;;5048012;28;20468;-68
2021/07/28 10:44:32;;;;;;;16.23;15.33;;;24.30;99.90;;;;;;5052563;28;20552;-67
2021/07/28 10:47:34;;;;;;;16.43;15.53;;;23.90;99.90;;;;;;5048839;28;20796;-71
2021/07/28 10:50:01;;;;;;;16.70;15.80;;;23.70;99.90;;;;;;5048288;28;20609;-71
2021/07/28 10:52:44;;;;;;;16.80;15.90;;;23.60;99.90;;;;;;5047215;28;20586;-68
2021/07/28 10:55:24;;;;;;;16.30;15.30;;;23.90;99.90;;;;;;5052616;28;20780;-68
2021/07/28 10:58:21;;;;;;;16.80;15.60;;;24.00;99.90;;;;;;5048532;28;20465;-68
2021/07/28 11:00:54;;;;;;;16.40;15.13;;;24.60;99.90;;;;;;5051678;28;20448;-68
2021/07/28 11:03:28;;;;;;;15.80;14.90;;;24.70;99.90;;;;;;5042009;28;20850;-68
2021/07/28 11:06:17;;;;;;;15.83;14.77;;;24.70;99.90;;;;;;5049029;28;20694;-71
2021/07/28 11:08:44;;;;;;;16.30;14.77;;;24.70;99.90;;;;;;5044867;28;20891;-70
2021/07/28 11:11:21;;;;;;;16.53;15.33;;;24.40;99.90;;;;;;5048087;28;20488;-69
2021/07/28 11:13:48;;;;;;;16.27;15.37;;;23.90;99.90;;;;;;5048264;28;20869;-71
2021/07/28 11:16:16;;;;;;;16.80;15.50;;;24.10;99.90;;;;;;5043807;28;21220;-71
2021/07/28 11:18:45;;;;;;;16.43;15.30;;;24.60;99.90;;;;;;5050137;28;20471;-72
2021/07/28 11:21:15;;;;;;;15.90;15.00;;;25.60;99.90;;;;;;5049665;28;20471;-69
2021/07/28 11:23:44;;;;;;;15.83;14.93;;;25.80;99.90;;;;;;5053008;28;20514;-72
2021/07/28 11:26:19;;;;;;;16.43;15.10;;;26.00;99.90;;;;;;5051631;28;20468;-69
2021/07/28 11:28:46;;;;;;;16.00;15.20;;;25.30;99.90;;;;;;5053833;28;20509;-73
2021/07/28 11:31:14;;;;;;;15.80;15.00;;;25.10;99.90;;;;;;5052239;28;20815;-70
2021/07/28 11:33:43;;;;;;;16.63;14.97;;;25.10;99.90;;;;;;5057187;28;20474;-69
2021/07/28 11:36:09;;;;;;;15.93;15.03;;;25.60;99.90;;;;;;5055886;28;20942;-69
2021/07/28 11:38:38;;;;;;;15.90;15.00;;;26.10;99.90;;;;;;5051761;28;20467;-71
2021/07/28 11:41:09;;;;;;;15.60;14.80;;;26.10;99.90;;;;;;5051449;28;20463;-71
2021/07/28 11:43:39;;;;;;;15.30;14.50;;;26.20;99.90;;;;;;5054914;28;20483;-71
2021/07/28 11:46:12;;;;;;;14.77;13.97;;;26.50;99.90;;;;;;5052982;28;20464;-68
2021/07/28 11:48:41;;;;;;;15.70;14.80;;;26.80;99.90;;;;;;5054136;28;20451;-71
2021/07/28 11:51:10;;;;;;;15.13;14.23;;;26.90;99.90;;;;;;5053178;28;20443;-68
2021/07/28 11:53:38;;;;;;;16.17;14.87;;;26.60;99.90;;;;;;5053686;28;20467;-68
2021/07/28 11:56:10;;;;;;;15.73;14.80;;;26.50;99.90;;;;;;5055588;28;20467;-70
2021/07/28 11:58:42;;;;;;;15.37;14.57;;;26.50;99.90;;;;;;5058872;28;20460;-68
2021/07/28 12:01:20;;;;;;;15.30;14.33;;;26.70;99.90;;;;;;5052795;28;20809;-67
2021/07/28 12:03:50;;;;;;;15.40;14.60;;;27.20;99.90;;;;;;5059076;28;20487;-68
2021/07/28 12:06:29;;;;;;;15.70;14.90;;;27.70;99.90;;;;;;5050703;28;20452;-70
2021/07/28 12:09:10;;;;;;;15.63;14.60;;;27.80;99.90;;;;;;5061281;28;20550;-68
2021/07/28 12:11:54;;;;;;;14.57;13.77;;;28.10;99.70;;;;;;5055795;28;20465;-68
2021/07/28 12:14:29;;;;;;;15.70;14.90;;;27.00;99.80;;;;;;5055463;28;20472;-69
2021/07/28 12:16:59;;;;;;;16.10;15.00;;;26.30;99.90;;;;;;5057533;28;20483;-67
2021/07/28 12:19:29;;;;;;;15.43;14.43;;;26.80;99.90;;;;;;5055756;28;20850;-67
2021/07/28 12:22:00;;;;;;;15.60;14.60;;;27.90;99.90;;;;;;5051356;28;20452;-67
2021/07/28 12:24:38;;;;;;;16.03;14.93;;;28.30;98.70;;;;;;5048692;28;20491;-67
2021/07/28 12:27:41;;;;;;;15.73;14.20;;;27.50;99.20;;;;;;5060170;28;20463;-67
2021/07/28 12:30:17;;;;;;;15.53;14.73;;;27.80;99.90;;;;;;5058181;28;20460;-70
2021/07/28 12:32:45;;;;;;;15.43;14.53;;;27.80;99.90;;;;;;5051816;28;20460;-67
2021/07/28 12:35:33;;;;;;;14.47;13.77;;;27.90;99.90;;;;;;5058937;28;20462;-68
2021/07/28 12:38:09;;;;;;;15.60;14.80;;;27.70;99.70;;;;;;5058481;28;20459;-67
2021/07/28 12:40:37;;;;;;;15.20;14.30;;;27.40;99.40;;;;;;5057792;28;20617;-68